createdAt,value
2023-02-05T00:02:34.625Z,8.60
2023-02-05T00:05:21.561Z,5.13
2023-02-05T00:08:08.409Z,6.57
2023-02-05T00:10:55.600Z,6.40
2023-02-05T00:13:44.154Z,3.40
2023-02-05T00:16:31.487Z,6.43
2023-02-05T00:19:19.959Z,11.00
2023-02-05T00:22:07.133Z,7.70
2023-02-05T00:24:54.099Z,5.90
2023-02-05T00:27:40.957Z,6.90
2023-02-05T00:30:28.560Z,7.80
2023-02-05T00:33:15.330Z,6.37
2023-02-05T00:36:04.389Z,8.57
2023-02-05T00:38:51.427Z,5.27
2023-02-05T00:41:38.299Z,6.83
2023-02-05T00:44:25.364Z,7.63
2023-02-05T00:47:15.104Z,7.73
2023-02-05T00:50:02.297Z,4.20
2023-02-05T00:52:50.653Z,3.60
2023-02-05T00:55:37.720Z,3.10
2023-02-05T00:58:24.644Z,2.73
2023-02-05T01:01:14.400Z,3.17
2023-02-05T01:04:01.524Z,3.50
2023-02-05T01:06:48.706Z,3.30
2023-02-05T01:09:36.890Z,2.63
2023-02-05T01:12:24.427Z,3.13
2023-02-05T01:15:14.633Z,2.83
2023-02-05T01:18:02.116Z,4.40
2023-02-05T01:20:48.655Z,3.47
2023-02-05T01:23:35.555Z,3.00
2023-02-05T01:26:24.328Z,4.40
2023-02-05T01:29:11.196Z,6.97
2023-02-05T01:31:58.380Z,3.37
2023-02-05T01:34:45.880Z,5.87
2023-02-05T01:37:32.900Z,3.60
2023-02-05T01:40:20.481Z,7.90
2023-02-05T01:43:13.260Z,8.67
2023-02-05T01:46:15.389Z,8.57
2023-02-05T01:49:04.075Z,6.10
2023-02-05T01:51:56.328Z,8.30
2023-02-05T01:54:48.866Z,15.47
2023-02-05T01:57:37.953Z,3.87
2023-02-05T02:00:26.586Z,6.53
2023-02-05T02:03:16.094Z,6.27
2023-02-05T02:06:04.971Z,5.37
2023-02-05T02:08:51.829Z,5.27
2023-02-05T02:11:42.507Z,9.93
2023-02-05T02:14:32.844Z,7.27
2023-02-05T02:17:22.046Z,6.10
2023-02-05T02:20:11.957Z,7.33
2023-02-05T02:23:14.939Z,3.40
2023-02-05T02:26:22.563Z,3.13
2023-02-05T02:29:18.278Z,4.20
2023-02-05T02:32:13.488Z,5.97
2023-02-05T02:35:07.216Z,4.07
2023-02-05T02:38:02.058Z,4.73
2023-02-05T02:40:53.130Z,3.77
2023-02-05T02:43:46.370Z,7.27
2023-02-05T02:46:40.157Z,4.67
2023-02-05T02:49:33.151Z,6.97
2023-02-05T02:52:24.431Z,5.37
2023-02-05T02:55:14.734Z,9.70
2023-02-05T02:58:04.709Z,8.63
2023-02-05T03:00:53.751Z,4.57
2023-02-05T03:03:46.285Z,6.33
2023-02-05T03:06:34.793Z,2.83
2023-02-05T03:09:28.238Z,2.57
2023-02-05T03:12:15.231Z,4.20
2023-02-05T03:15:02.466Z,3.23
2023-02-05T03:17:49.493Z,3.87
2023-02-05T03:20:43.165Z,3.70
2023-02-05T03:23:31.054Z,2.53
2023-02-05T03:26:25.406Z,6.03
2023-02-05T03:29:15.265Z,2.10
2023-02-05T03:32:13.315Z,2.20
2023-02-05T03:35:13.225Z,6.87
2023-02-05T03:38:20.354Z,5.10
2023-02-05T03:41:14.903Z,4.43
2023-02-05T03:44:09.579Z,2.93
2023-02-05T03:47:04.117Z,6.67
2023-02-05T03:49:59.167Z,2.53
2023-02-05T03:52:51.663Z,2.13
2023-02-05T03:55:43.624Z,3.00
2023-02-05T03:58:37.414Z,4.73
2023-02-05T04:01:26.146Z,7.33
2023-02-05T04:04:13.085Z,6.93
2023-02-05T04:06:59.814Z,5.53
2023-02-05T04:09:46.648Z,6.43
2023-02-05T04:12:35.152Z,2.20
2023-02-05T04:15:21.933Z,5.77
2023-02-05T04:18:09.502Z,4.10
2023-02-05T04:20:56.616Z,10.43
2023-02-05T04:23:43.780Z,4.30
2023-02-05T04:26:30.922Z,4.97
2023-02-05T04:29:19.291Z,2.87
2023-02-05T04:32:06.505Z,4.73
2023-02-05T04:34:53.706Z,5.93
2023-02-05T04:37:40.447Z,2.20
2023-02-05T04:40:27.445Z,3.63
2023-02-05T04:43:14.603Z,2.53
2023-02-05T04:46:07.992Z,4.03
2023-02-05T04:48:55.165Z,2.40
2023-02-05T04:51:41.873Z,4.07
2023-02-05T04:54:29.915Z,5.23
2023-02-05T04:57:16.894Z,3.53
2023-02-05T05:00:06.134Z,4.43
2023-02-05T05:02:54.730Z,4.47
2023-02-05T05:05:41.764Z,3.20
2023-02-05T05:08:29.828Z,3.43
2023-02-05T05:11:18.839Z,5.43
2023-02-05T05:14:05.645Z,2.87
2023-02-05T05:16:52.580Z,3.70
2023-02-05T05:19:41.889Z,5.50
2023-02-05T05:22:29.028Z,4.00
2023-02-05T05:25:16.233Z,3.03
2023-02-05T05:28:03.144Z,3.63
2023-02-05T05:30:50.066Z,2.17
2023-02-05T05:33:37.672Z,2.17
2023-02-05T05:36:25.878Z,2.97
2023-02-05T05:39:30.759Z,2.33
2023-02-05T05:42:35.024Z,2.83
2023-02-05T05:45:23.347Z,6.87
2023-02-05T05:48:10.282Z,6.63
2023-02-05T05:50:57.365Z,2.53
2023-02-05T05:53:45.869Z,4.23
2023-02-05T05:56:32.969Z,5.93
2023-02-05T05:59:21.735Z,2.27
2023-02-05T06:02:09.171Z,2.87
2023-02-05T06:04:56.206Z,2.50
2023-02-05T06:07:43.219Z,3.80
2023-02-05T06:10:33.024Z,2.77
2023-02-05T06:13:20.159Z,3.53
2023-02-05T06:16:07.606Z,4.47
2023-02-05T06:18:54.938Z,3.87
2023-02-05T06:21:42.049Z,2.33
2023-02-05T06:24:30.988Z,3.17
2023-02-05T06:27:19.781Z,1.67
2023-02-05T06:30:07.607Z,1.80
2023-02-05T06:32:54.413Z,1.83
2023-02-05T06:35:42.020Z,1.60
2023-02-05T06:38:28.969Z,1.63
2023-02-05T06:41:15.854Z,2.37
2023-02-05T06:44:04.633Z,2.00
2023-02-05T06:46:53.847Z,2.83
2023-02-05T06:49:43.882Z,2.00
2023-02-05T06:52:31.420Z,1.90
2023-02-05T06:55:18.699Z,1.93
2023-02-05T06:58:07.668Z,1.50
2023-02-05T07:00:56.187Z,1.73
2023-02-05T07:03:43.007Z,2.10
2023-02-05T07:06:30.282Z,1.23
2023-02-05T07:09:17.650Z,2.37
2023-02-05T07:12:04.827Z,2.17
2023-02-05T07:14:53.717Z,1.67
2023-02-05T07:17:42.186Z,2.03
2023-02-05T07:20:29.153Z,1.73
2023-02-05T07:23:15.863Z,2.13
2023-02-05T07:26:08.152Z,1.47
2023-02-05T07:28:55.907Z,1.27
2023-02-05T07:31:43.452Z,2.30
2023-02-05T07:34:32.368Z,1.90
2023-02-05T07:37:21.414Z,1.90
2023-02-05T07:40:09.960Z,1.97
2023-02-05T07:42:56.730Z,1.93
2023-02-05T07:45:44.043Z,1.90
2023-02-05T07:48:31.486Z,3.77
2023-02-05T07:51:21.789Z,2.23
2023-02-05T07:54:09.008Z,1.53
2023-02-05T07:56:56.711Z,2.27
2023-02-05T07:59:43.677Z,1.80
2023-02-05T08:02:30.708Z,1.83
2023-02-05T08:05:17.880Z,2.10
2023-02-05T08:08:07.132Z,2.10
2023-02-05T08:10:58.354Z,1.60
2023-02-05T08:13:46.244Z,2.03
2023-02-05T08:16:33.423Z,1.50
2023-02-05T08:19:23.920Z,1.63
2023-02-05T08:22:10.798Z,2.00
2023-02-05T08:24:59.387Z,1.97
2023-02-05T08:27:46.887Z,1.83
2023-02-05T08:30:33.837Z,1.70
2023-02-05T08:33:21.177Z,2.07
2023-02-05T08:36:10.215Z,1.80
2023-02-05T08:38:57.387Z,1.70
2023-02-05T08:41:45.872Z,2.20
2023-02-05T08:44:32.621Z,1.70
2023-02-05T08:47:21.142Z,1.50
2023-02-05T08:50:09.034Z,1.63
2023-02-05T08:52:55.851Z,1.43
2023-02-05T08:55:42.754Z,2.40
2023-02-05T08:58:31.070Z,2.20
2023-02-05T09:01:18.903Z,2.23
2023-02-05T09:04:06.987Z,2.33
2023-02-05T09:06:54.188Z,1.87
2023-02-05T09:09:41.427Z,2.10
2023-02-05T09:12:28.266Z,2.03
2023-02-05T09:15:16.933Z,2.70
2023-02-05T09:18:04.343Z,2.27
2023-02-05T09:20:54.212Z,2.23
2023-02-05T09:23:41.233Z,1.80
2023-02-05T09:26:28.405Z,1.97
2023-02-05T09:29:16.224Z,1.67
2023-02-05T09:32:04.965Z,2.40
2023-02-05T09:34:52.249Z,2.40
2023-02-05T09:37:39.644Z,2.23
2023-02-05T09:40:30.714Z,2.27
2023-02-05T09:43:31.114Z,2.67
2023-02-05T09:46:27.214Z,1.80
2023-02-05T09:49:23.137Z,1.90
2023-02-05T09:52:19.039Z,1.73
2023-02-05T09:55:12.372Z,1.87
2023-02-05T09:58:03.780Z,2.23
2023-02-05T10:00:54.749Z,2.27
2023-02-05T10:03:47.181Z,1.70
2023-02-05T10:06:53.070Z,1.70
2023-02-05T10:10:08.455Z,2.10
2023-02-05T10:13:19.109Z,2.33
2023-02-05T10:16:51.367Z,2.53
2023-02-05T10:19:58.846Z,2.47
2023-02-05T10:22:59.425Z,1.90
2023-02-05T10:26:10.770Z,1.83
2023-02-05T10:29:22.858Z,1.93
2023-02-05T10:32:21.309Z,1.90
2023-02-05T10:35:22.105Z,1.70
2023-02-05T10:38:17.184Z,2.10
2023-02-05T10:41:13.672Z,1.60
2023-02-05T10:44:11.364Z,2.20
2023-02-05T10:47:06.492Z,2.17
2023-02-05T10:49:58.869Z,2.10
2023-02-05T10:52:46.026Z,2.93
2023-02-05T10:55:34.525Z,2.00
2023-02-05T10:58:41.522Z,2.00
2023-02-05T11:01:36.066Z,2.73
2023-02-05T11:04:32.810Z,2.07
2023-02-05T11:07:26.170Z,2.37
2023-02-05T11:10:18.312Z,2.63
2023-02-05T11:13:19.239Z,2.47
2023-02-05T11:16:09.137Z,2.13
2023-02-05T11:19:02.613Z,1.87
2023-02-05T11:21:52.801Z,2.03
2023-02-05T11:24:40.691Z,2.13
2023-02-05T11:27:31.066Z,3.50
2023-02-05T11:30:49.719Z,2.17
2023-02-05T11:33:33.932Z,2.60
2023-02-05T11:36:24.429Z,2.10
2023-02-05T11:39:29.228Z,2.00
2023-02-05T11:42:22.656Z,2.00
2023-02-05T11:45:20.287Z,1.80
2023-02-05T11:48:26.023Z,1.70
2023-02-05T11:51:15.913Z,1.70
2023-02-05T11:54:05.546Z,2.20
2023-02-05T11:57:05.138Z,2.10
2023-02-05T11:59:57.650Z,2.27
2023-02-05T12:02:45.420Z,2.10
2023-02-05T12:05:38.601Z,1.80
2023-02-05T12:08:32.526Z,1.70
2023-02-05T12:12:04.087Z,1.70
2023-02-05T12:15:05.736Z,1.70
2023-02-05T12:18:00.318Z,2.00
2023-02-05T12:20:58.630Z,2.10
2023-02-05T12:24:16.443Z,1.73
2023-02-05T12:27:10.430Z,1.63
2023-02-05T12:30:12.438Z,2.00
2023-02-05T12:33:12.983Z,2.10
2023-02-05T12:36:12.679Z,1.47
2023-02-05T12:39:15.085Z,1.97
2023-02-05T12:42:11.908Z,1.63
2023-02-05T12:45:24.965Z,1.60
2023-02-05T12:48:40.272Z,1.80
2023-02-05T12:51:52.066Z,1.90
2023-02-05T12:54:50.353Z,1.83
2023-02-05T12:57:44.285Z,2.10
2023-02-05T13:00:39.125Z,2.00
2023-02-05T13:03:31.269Z,1.90
2023-02-05T13:06:24.454Z,1.90
2023-02-05T13:09:22.572Z,1.73
2023-02-05T13:12:15.541Z,1.93
2023-02-05T13:15:14.628Z,1.73
2023-02-05T13:18:06.808Z,1.90
2023-02-05T13:21:15.442Z,1.67
2023-02-05T13:24:31.134Z,2.23
2023-02-05T13:27:42.041Z,2.33
2023-02-05T13:30:35.685Z,2.20
2023-02-05T13:34:50.083Z,1.90
2023-02-05T13:46:27.318Z,2.57
2023-02-05T13:49:35.462Z,2.03
2023-02-05T13:52:43.078Z,2.17
2023-02-05T13:56:02.646Z,2.70
2023-02-05T13:58:52.997Z,2.77
2023-02-05T14:01:45.977Z,3.40
2023-02-05T14:04:39.585Z,2.73
2023-02-05T14:07:30.292Z,3.43
2023-02-05T14:10:29.314Z,3.03
2023-02-05T14:13:25.427Z,3.03
2023-02-05T14:16:35.181Z,3.00
2023-02-05T14:19:26.744Z,2.47
2023-02-05T14:22:34.430Z,2.80
2023-02-05T14:25:47.751Z,2.83
2023-02-05T14:28:52.532Z,2.57
2023-02-05T14:32:00.252Z,2.67
2023-02-05T14:34:49.432Z,2.20
2023-02-05T14:37:39.126Z,2.20
2023-02-05T14:40:31.597Z,2.53
2023-02-05T14:43:26.104Z,2.20
2023-02-05T14:46:23.890Z,1.60
2023-02-05T14:49:24.519Z,1.27
2023-02-05T14:52:27.046Z,1.27
2023-02-05T14:55:21.806Z,1.00
2023-02-05T14:58:22.072Z,1.57
2023-02-05T15:01:31.991Z,0.70
2023-02-05T15:04:39.601Z,0.83
2023-02-05T15:07:29.356Z,1.10
2023-02-05T15:10:20.606Z,0.97
2023-02-05T15:13:12.965Z,0.80
2023-02-05T15:16:19.585Z,0.97
2023-02-05T15:19:09.874Z,1.00
2023-02-05T15:21:56.720Z,1.00
2023-02-05T15:24:46.611Z,0.70
2023-02-05T15:27:44.881Z,0.67
2023-02-05T15:30:41.253Z,0.60
2023-02-05T15:33:41.107Z,0.37
2023-02-05T15:36:35.198Z,0.50
2023-02-05T15:39:28.095Z,0.30
2023-02-05T15:42:20.034Z,0.40
2023-02-05T15:45:19.878Z,0.40
2023-02-05T15:48:12.499Z,0.30
2023-02-05T15:51:03.264Z,0.40
2023-02-05T15:53:52.443Z,0.40
2023-02-05T15:56:42.201Z,0.50
2023-02-05T15:59:31.980Z,0.80
2023-02-05T16:02:21.659Z,0.50
2023-02-05T16:05:20.111Z,0.60
2023-02-05T16:08:18.799Z,0.20
2023-02-05T16:11:07.162Z,0.33
2023-02-05T16:14:04.611Z,0.13
2023-02-05T16:17:03.988Z,0.30
2023-02-05T16:19:54.149Z,1.00
2023-02-05T16:22:44.914Z,0.30
2023-02-05T16:25:38.313Z,0.40
2023-02-05T16:28:41.323Z,0.73
2023-02-05T16:31:30.250Z,0.43
2023-02-05T16:34:22.575Z,0.40
2023-02-05T16:37:15.895Z,0.70
2023-02-05T16:40:06.017Z,0.50
2023-02-05T16:42:53.051Z,0.83
2023-02-05T16:45:39.916Z,0.53
2023-02-05T16:48:30.604Z,0.50
2023-02-05T16:51:32.865Z,0.70
2023-02-05T16:54:31.744Z,1.07
2023-02-05T16:57:28.277Z,0.60
2023-02-05T17:00:22.949Z,1.00
2023-02-05T17:03:19.092Z,1.10
2023-02-05T17:06:13.427Z,1.20
2023-02-05T17:09:04.902Z,1.30
2023-02-05T17:11:52.572Z,1.03
2023-02-05T17:14:39.441Z,0.80
2023-02-05T17:17:27.661Z,0.80
2023-02-05T17:20:21.764Z,1.30
2023-02-05T17:23:11.511Z,1.50
2023-02-05T17:26:00.092Z,0.80
2023-02-05T17:28:52.083Z,1.30
2023-02-05T17:31:40.266Z,1.27
2023-02-05T17:34:27.411Z,1.20
2023-02-05T17:37:15.389Z,1.20
2023-02-05T17:40:02.529Z,1.00
2023-02-05T17:42:50.861Z,1.60
2023-02-05T17:45:40.508Z,0.90
2023-02-05T17:48:27.507Z,0.90
2023-02-05T17:51:20.491Z,1.23
2023-02-05T17:54:11.835Z,1.23
2023-02-05T17:57:11.026Z,0.70
2023-02-05T17:59:59.618Z,1.20
2023-02-05T18:02:46.582Z,0.70
2023-02-05T18:05:34.161Z,1.20
2023-02-05T18:08:21.031Z,1.10
2023-02-05T18:11:07.962Z,0.90
2023-02-05T18:13:54.802Z,1.20
2023-02-05T18:16:43.666Z,1.17
2023-02-05T18:19:30.702Z,1.90
2023-02-05T18:22:17.885Z,1.67
2023-02-05T18:25:05.047Z,1.43
2023-02-05T18:27:51.955Z,1.30
2023-02-05T18:30:39.803Z,2.13
2023-02-05T18:33:28.422Z,1.57
2023-02-05T18:36:16.208Z,1.50
2023-02-05T18:39:03.484Z,1.70
2023-02-05T18:41:50.651Z,1.57
2023-02-05T18:44:37.530Z,1.50
2023-02-05T18:47:25.023Z,1.30
2023-02-05T18:50:14.017Z,1.43
2023-02-05T18:53:01.272Z,1.40
2023-02-05T18:55:48.223Z,1.13
2023-02-05T18:58:35.956Z,1.57
2023-02-05T19:01:22.602Z,1.40
2023-02-05T19:04:12.371Z,1.30
2023-02-05T19:07:00.952Z,1.40
2023-02-05T19:09:47.739Z,1.10
2023-02-05T19:12:34.603Z,1.50
2023-02-05T19:15:21.705Z,1.40
2023-02-05T19:18:09.028Z,1.30
2023-02-05T19:20:55.790Z,1.70
2023-02-05T19:23:45.030Z,1.40
2023-02-05T19:26:33.215Z,1.60
2023-02-05T19:38:24.297Z,2.53
2023-02-05T19:41:20.658Z,2.40
2023-02-05T19:44:11.258Z,1.33
2023-02-05T19:47:03.178Z,1.60
2023-02-05T19:49:51.260Z,1.87
2023-02-05T19:52:43.034Z,1.00
2023-02-05T19:56:35.795Z,1.10
2023-02-05T19:59:26.243Z,1.30
2023-02-05T20:02:22.369Z,0.57
2023-02-05T20:05:10.783Z,1.00
2023-02-05T20:08:08.804Z,0.90
2023-02-05T20:11:01.796Z,1.00
2023-02-05T20:13:50.637Z,0.57
2023-02-05T20:16:42.450Z,0.70
2023-02-05T20:19:32.247Z,0.93
2023-02-05T20:22:20.228Z,0.97
2023-02-05T20:25:09.165Z,1.00
2023-02-05T20:27:59.958Z,0.60
2023-02-05T20:31:05.590Z,0.83
2023-02-05T20:33:57.095Z,0.70
2023-02-05T20:36:45.789Z,0.73
2023-02-05T20:39:44.242Z,0.80
2023-02-05T20:42:34.135Z,0.50
2023-02-05T20:48:55.966Z,0.60
2023-02-05T20:51:46.922Z,0.60
2023-02-05T20:54:48.552Z,0.70
2023-02-05T20:57:37.057Z,0.87
2023-02-05T21:00:27.074Z,0.80
2023-02-05T21:03:14.947Z,0.50
2023-02-05T21:06:03.808Z,0.67
2023-02-05T21:08:54.212Z,0.70
2023-02-05T21:11:44.391Z,0.93
2023-02-05T21:14:41.832Z,0.80
2023-02-05T21:17:34.729Z,0.90
2023-02-05T21:20:38.906Z,0.70
2023-02-05T21:23:27.310Z,0.47
2023-02-05T21:26:25.809Z,0.40
2023-02-05T21:29:19.513Z,0.80
2023-02-05T21:32:11.836Z,0.70
2023-02-05T21:35:00.698Z,0.80
2023-02-05T21:37:49.427Z,0.70
2023-02-05T21:40:39.975Z,0.80
2023-02-05T21:43:29.374Z,0.70
2023-02-05T21:46:22.006Z,0.97
2023-02-05T21:49:10.316Z,1.00
2023-02-05T21:52:02.021Z,1.17
2023-02-05T21:54:51.842Z,0.70
2023-02-05T21:57:43.946Z,0.90
2023-02-05T22:00:35.304Z,1.00
2023-02-05T22:03:36.007Z,1.13
2023-02-05T22:06:27.488Z,1.40
2023-02-05T22:09:17.791Z,1.60
2023-02-05T22:12:08.090Z,1.53
2023-02-05T22:14:57.399Z,1.43
2023-02-05T22:17:51.216Z,1.33
2023-02-05T22:20:40.345Z,1.30
2023-02-05T22:23:28.896Z,1.37
2023-02-05T22:26:18.746Z,1.27
2023-02-05T22:29:12.172Z,1.23
2023-02-05T22:32:00.423Z,1.23
2023-02-05T22:34:54.742Z,1.70
2023-02-05T22:37:46.272Z,1.30
2023-02-05T22:40:35.630Z,1.30
2023-02-05T22:43:28.574Z,1.30
2023-02-05T22:46:19.099Z,1.23
2023-02-05T22:49:11.091Z,1.50
2023-02-05T22:52:03.063Z,1.27
2023-02-05T22:54:52.020Z,1.10
2023-02-05T22:57:41.824Z,1.20
2023-02-05T23:00:30.782Z,0.90
2023-02-05T23:03:20.759Z,1.07
2023-02-05T23:06:11.666Z,1.17
2023-02-05T23:09:04.053Z,1.07
2023-02-05T23:11:52.031Z,1.20
2023-02-05T23:14:41.847Z,0.93
2023-02-05T23:17:31.076Z,1.03
2023-02-05T23:20:20.138Z,1.30
2023-02-05T23:23:11.534Z,1.20
2023-02-05T23:26:12.045Z,1.03
2023-02-05T23:29:00.943Z,1.37
2023-02-05T23:31:49.664Z,1.03
2023-02-05T23:34:38.330Z,1.23
2023-02-05T23:37:26.358Z,1.50
2023-02-05T23:40:15.247Z,1.00
2023-02-05T23:43:06.224Z,1.10
2023-02-05T23:45:59.633Z,1.60
2023-02-05T23:48:52.308Z,1.07
2023-02-05T23:51:40.988Z,1.20
2023-02-05T23:54:35.034Z,1.33
2023-02-05T23:57:23.301Z,1.20
